Terminal Aerodrome Forecast
Issued by NWS

Home | Current Version | Previous Version | Text Only | Print | Product List | Glossary On
Versions: 1 2 3 4 5 6 7 8 9 10 11 12 13 14
000
FTUS45 KGJT 221722
TAFMTJ
TAF
KMTJ 221722Z 2218/2318 29006KT P6SM FEW250
     FM222000 28011KT P6SM VCSH FEW250
      TEMPO 2220/2224 VRB15G30KT
     FM230100 31012KT P6SM FEW200
     FM230200 31007KT P6SM FEW200
     FM230400 16005KT P6SM FEW250
     FM231700 30004KT P6SM SKC=

USA.gov is the U.S. government's official web portal to all federal, state and local government web resources and services.